createdAt,value
2023-04-22T00:03:45.560Z,58.19
2023-04-22T00:08:47.405Z,57.56
2023-04-22T00:13:49.020Z,58.02
2023-04-22T00:18:50.573Z,58.01
2023-04-22T00:23:52.037Z,57.51
2023-04-22T00:28:53.537Z,58.06
2023-04-22T00:33:55.073Z,58.54
2023-04-22T00:38:57.068Z,58.90
2023-04-22T00:44:00.676Z,59.17
2023-04-22T00:49:02.402Z,59.78
2023-04-22T00:54:06.364Z,59.81
2023-04-22T00:59:09.475Z,60.05
2023-04-22T01:04:12.716Z,60.22
2023-04-22T01:09:14.889Z,60.74
2023-04-22T01:14:16.520Z,60.44
2023-04-22T01:19:18.517Z,60.05
2023-04-22T01:24:21.212Z,60.14
2023-04-22T01:29:23.070Z,60.94
2023-04-22T01:34:24.628Z,61.02
2023-04-22T01:39:26.504Z,61.45
2023-04-22T01:44:28.260Z,61.80
2023-04-22T01:49:29.808Z,61.67
2023-04-22T01:54:31.963Z,62.15
2023-04-22T01:59:33.477Z,61.65
2023-04-22T02:04:34.985Z,61.71
2023-04-22T02:09:36.909Z,61.14
2023-04-22T02:14:38.616Z,63.66
2023-04-22T02:19:40.377Z,63.77
2023-04-22T02:24:43.091Z,60.28
2023-04-22T02:29:44.578Z,59.00
2023-04-22T02:34:47.368Z,58.84
2023-04-22T02:39:49.642Z,59.12
2023-04-22T02:44:51.156Z,59.45
2023-04-22T02:49:52.649Z,59.60
2023-04-22T02:54:54.133Z,59.22
2023-04-22T02:59:55.668Z,60.10
2023-04-22T03:04:57.177Z,61.27
2023-04-22T03:09:58.730Z,61.44
2023-04-22T03:15:00.449Z,62.30
2023-04-22T03:20:02.019Z,61.58
2023-04-22T03:25:04.290Z,64.83
2023-04-22T03:30:06.762Z,66.49
2023-04-22T03:35:08.928Z,64.58
2023-04-22T03:40:12.514Z,64.59
2023-04-22T03:45:15.439Z,68.97
2023-04-22T03:50:16.948Z,69.97
2023-04-22T03:55:18.688Z,70.15
2023-04-22T04:00:24.430Z,70.11
2023-04-22T04:05:26.233Z,69.27
2023-04-22T04:10:27.846Z,68.57
2023-04-22T04:15:30.637Z,66.74
2023-04-22T04:20:32.160Z,66.20
2023-04-22T04:25:39.000Z,67.45
2023-04-22T04:30:41.843Z,67.57
2023-04-22T04:35:44.882Z,66.31
2023-04-22T04:40:46.377Z,65.97
2023-04-22T04:45:48.880Z,65.34
2023-04-22T04:50:53.799Z,64.53
2023-04-22T04:55:55.531Z,64.11
2023-04-22T05:00:57.075Z,63.62
2023-04-22T05:05:58.881Z,63.31
2023-04-22T05:11:00.362Z,63.86
2023-04-22T05:16:01.934Z,63.16
2023-04-22T05:21:04.434Z,63.31
2023-04-22T05:26:06.016Z,64.72
2023-04-22T05:31:07.509Z,64.69
2023-04-22T05:36:09.036Z,64.78
2023-04-22T05:41:10.565Z,64.85
2023-04-22T05:46:12.133Z,65.46
2023-04-22T05:51:13.725Z,64.94
2023-04-22T05:56:15.259Z,63.65
2023-04-22T06:01:16.752Z,62.84
2023-04-22T06:06:18.503Z,63.46
2023-04-22T06:11:20.010Z,62.85
2023-04-22T06:16:22.442Z,62.66
2023-04-22T06:21:23.997Z,62.55
2023-04-22T06:26:26.816Z,62.18
2023-04-22T06:31:28.496Z,61.43
2023-04-22T06:36:30.887Z,59.73
2023-04-22T06:41:35.295Z,59.11
2023-04-22T06:46:38.299Z,58.21
2023-04-22T06:51:39.899Z,57.98
2023-04-22T06:56:41.434Z,57.77
2023-04-22T07:01:42.966Z,57.31
2023-04-22T07:06:44.689Z,56.72
2023-04-22T07:11:46.481Z,56.73
2023-04-22T07:16:48.072Z,56.84
2023-04-22T07:21:49.805Z,56.48
2023-04-22T07:26:51.285Z,55.64
2023-04-22T07:31:52.951Z,55.51
2023-04-22T07:36:54.704Z,54.64
2023-04-22T07:41:56.995Z,52.25
2023-04-22T07:46:59.256Z,51.55
2023-04-22T07:52:00.719Z,51.01
2023-04-22T07:57:02.432Z,49.77
2023-04-22T08:02:04.034Z,50.24
2023-04-22T08:07:17.102Z,50.08
2023-04-22T08:12:27.615Z,47.05
2023-04-22T08:17:29.197Z,46.12
2023-04-22T08:22:32.192Z,44.88
2023-04-22T08:27:33.819Z,44.98
2023-04-22T08:32:35.436Z,45.98
2023-04-22T08:37:37.053Z,45.43
2023-04-22T08:42:38.652Z,44.75
2023-04-22T08:47:41.404Z,43.08
2023-04-22T08:52:43.661Z,41.74
2023-04-22T08:57:46.122Z,43.15
2023-04-22T09:02:50.621Z,42.90
2023-04-22T09:07:52.925Z,42.75
2023-04-22T09:12:54.800Z,41.58
2023-04-22T09:17:58.596Z,41.58
2023-04-22T09:23:05.174Z,40.42
2023-04-22T09:28:12.245Z,41.17
2023-04-22T09:33:14.038Z,42.98
2023-04-22T09:38:16.716Z,43.54
2023-04-22T09:43:20.831Z,43.16
2023-04-22T09:48:23.630Z,41.63
2023-04-22T09:53:25.393Z,40.34
2023-04-22T09:58:28.046Z,41.17
2023-04-22T10:03:29.916Z,41.34
2023-04-22T10:08:33.366Z,41.26
2023-04-22T10:13:36.512Z,41.90
2023-04-22T10:18:39.976Z,42.63
2023-04-22T10:23:47.105Z,42.68
2023-04-22T10:28:48.643Z,41.64
2023-04-22T10:33:50.153Z,41.90
2023-04-22T10:38:54.624Z,43.61
2023-04-22T10:43:58.821Z,43.22
2023-04-22T10:49:09.933Z,43.33
2023-04-22T10:54:32.535Z,42.67
2023-04-22T10:59:41.618Z,40.56
2023-04-22T11:04:43.960Z,38.77
2023-04-22T11:09:49.836Z,38.04
2023-04-22T11:14:51.629Z,36.32
2023-04-22T11:19:56.368Z,37.66
2023-04-22T11:25:00.400Z,37.82
2023-04-22T11:30:11.134Z,38.48
2023-04-22T11:35:24.005Z,36.73
2023-04-22T11:40:32.819Z,36.33
2023-04-22T11:45:37.745Z,35.48
2023-04-22T11:50:44.096Z,36.56
2023-04-22T11:55:48.100Z,36.12
2023-04-22T12:00:52.388Z,38.19
2023-04-22T12:05:55.202Z,38.25
2023-04-22T12:10:59.521Z,36.53
2023-04-22T12:16:02.981Z,37.64
2023-04-22T12:21:04.475Z,36.64
2023-04-22T12:26:06.013Z,37.24
2023-04-22T12:31:08.812Z,35.54
2023-04-22T12:36:10.891Z,33.57
2023-04-22T12:41:12.472Z,33.44
2023-04-22T12:46:14.139Z,32.85
2023-04-22T12:51:15.911Z,33.00
2023-04-22T12:56:17.404Z,31.96
2023-04-22T13:01:18.912Z,32.81
2023-04-22T13:06:20.449Z,32.13
2023-04-22T13:11:22.228Z,33.00
2023-04-22T13:16:23.845Z,34.21
2023-04-22T13:21:25.408Z,33.79
2023-04-22T13:26:27.168Z,32.42
2023-04-22T13:31:28.672Z,32.80
2023-04-22T13:36:31.214Z,32.52
2023-04-22T13:41:32.602Z,33.27
2023-04-22T13:46:34.116Z,33.72
2023-04-22T13:51:37.362Z,32.38
2023-04-22T13:56:38.973Z,32.22
2023-04-22T14:01:40.528Z,33.46
2023-04-22T14:06:45.501Z,34.76
2023-04-22T14:11:47.043Z,35.79
2023-04-22T14:16:48.697Z,35.68
2023-04-22T14:21:50.442Z,35.70
2023-04-22T14:26:52.926Z,35.57
2023-04-22T14:31:54.467Z,35.68
2023-04-22T14:36:56.396Z,36.40
2023-04-22T14:41:58.086Z,36.50
2023-04-22T14:46:59.616Z,35.95
2023-04-22T14:52:01.590Z,35.89
2023-04-22T14:57:04.202Z,35.60
2023-04-22T15:02:05.882Z,34.53
2023-04-22T15:07:07.793Z,33.67
2023-04-22T15:12:09.533Z,33.97
2023-04-22T15:17:11.283Z,35.63
2023-04-22T15:22:12.845Z,35.70
2023-04-22T15:27:14.368Z,35.38
2023-04-22T15:32:15.944Z,36.07
2023-04-22T15:37:17.420Z,35.14
2023-04-22T15:42:18.945Z,35.49
2023-04-22T15:47:20.495Z,36.30
2023-04-22T15:52:22.249Z,36.21
2023-04-22T15:57:23.816Z,36.81
2023-04-22T16:02:25.624Z,36.50
2023-04-22T16:07:27.427Z,35.86
2023-04-22T16:12:29.031Z,34.27
2023-04-22T16:17:30.666Z,33.81
2023-04-22T16:22:32.444Z,33.91
2023-04-22T16:27:34.561Z,33.37
2023-04-22T16:32:36.167Z,33.44
2023-04-22T16:37:37.696Z,33.32
2023-04-22T16:42:39.228Z,34.09
2023-04-22T16:47:41.149Z,34.53
2023-04-22T16:52:42.770Z,35.20
2023-04-22T16:57:47.645Z,35.76
2023-04-22T17:02:49.227Z,35.81
2023-04-22T17:07:51.032Z,35.63
2023-04-22T17:12:53.375Z,36.42
2023-04-22T17:17:54.917Z,36.84
2023-04-22T17:22:56.428Z,37.39
2023-04-22T17:27:58.180Z,38.36
2023-04-22T17:32:59.796Z,39.43
2023-04-22T17:38:01.529Z,39.61
2023-04-22T17:43:03.062Z,40.13
2023-04-22T17:48:04.730Z,40.63
2023-04-22T17:53:06.449Z,41.55
2023-04-22T17:58:08.198Z,41.60
2023-04-22T18:03:09.808Z,41.83
2023-04-22T18:08:11.433Z,42.34
2023-04-22T18:13:13.014Z,42.52
2023-04-22T18:18:16.500Z,42.87
2023-04-22T18:23:18.196Z,43.06
2023-04-22T18:28:19.948Z,43.62
2023-04-22T18:33:21.461Z,44.10
2023-04-22T18:38:23.013Z,44.39
2023-04-22T18:43:24.555Z,44.55
2023-04-22T18:48:26.400Z,44.51
2023-04-22T18:53:28.078Z,44.86
2023-04-22T18:58:29.549Z,45.10
2023-04-22T19:03:31.376Z,45.48
2023-04-22T19:08:33.788Z,45.57
2023-04-22T19:13:35.347Z,45.55
2023-04-22T19:18:36.861Z,45.38
2023-04-22T19:23:38.508Z,45.80
2023-04-22T19:28:47.008Z,45.89
2023-04-22T19:33:48.853Z,46.30
2023-04-22T19:38:50.325Z,46.63
2023-04-22T19:43:51.891Z,46.84
2023-04-22T19:48:53.977Z,47.45
2023-04-22T19:53:57.376Z,47.53
2023-04-22T19:58:59.321Z,47.84
2023-04-22T20:04:02.059Z,48.42
2023-04-22T20:09:05.564Z,48.77
2023-04-22T20:14:09.777Z,49.00
2023-04-22T20:19:11.772Z,49.55
2023-04-22T20:24:19.732Z,49.78
2023-04-22T20:29:22.273Z,49.97
2023-04-22T20:34:24.000Z,50.19
2023-04-22T20:39:26.394Z,50.73
2023-04-22T20:44:28.075Z,51.17
2023-04-22T20:49:29.584Z,51.14
2023-04-22T20:54:31.414Z,51.42
2023-04-22T20:59:34.324Z,51.31
2023-04-22T21:04:36.379Z,51.70
2023-04-22T21:09:38.602Z,51.82
2023-04-22T21:14:43.614Z,51.86
2023-04-22T21:19:48.417Z,51.82
2023-04-22T21:24:51.797Z,52.00
2023-04-22T21:29:54.276Z,52.31
2023-04-22T21:34:56.856Z,52.63
2023-04-22T21:39:58.476Z,52.90
2023-04-22T21:44:59.949Z,53.36
2023-04-22T21:50:01.501Z,53.91
2023-04-22T21:55:03.627Z,53.73
2023-04-22T22:00:16.038Z,54.66
2023-04-22T22:05:17.841Z,54.00
2023-04-22T22:10:19.582Z,54.29
2023-04-22T22:15:21.094Z,55.15
2023-04-22T22:20:22.616Z,54.90
2023-04-22T22:25:24.266Z,55.38
2023-04-22T22:30:26.197Z,56.04
2023-04-22T22:35:27.730Z,56.18
2023-04-22T22:40:29.279Z,56.12
2023-04-22T22:45:31.139Z,56.60
2023-04-22T22:50:32.975Z,56.96
2023-04-22T22:55:34.841Z,56.87
2023-04-22T23:00:37.040Z,57.05
2023-04-22T23:05:38.603Z,57.43
2023-04-22T23:10:40.134Z,57.86
2023-04-22T23:15:42.142Z,58.63
2023-04-22T23:20:44.320Z,59.31
2023-04-22T23:25:46.911Z,58.89
2023-04-22T23:30:51.185Z,59.55
2023-04-22T23:35:53.617Z,59.45
2023-04-22T23:40:55.242Z,59.47
2023-04-22T23:45:57.265Z,59.92
2023-04-22T23:50:58.812Z,60.04
2023-04-22T23:56:00.894Z,60.20
